Time;durP1;ratioP1;P1;durP2;ratioP2;P2;SDS_P1;SDS_P2;PMS_P1;PMS_P2;Temp;Humidity;BMP_temperature;BMP_pressure;BME280_temperature;BME280_humidity;BME280_pressure;Samples;Min_cycle;Max_cycle;Signal;HPM_P1;HPM_P2
2024/01/01 00:01:17;;;;;;;1.57;1.10;;;9.70;98.20;;;;;;6107597;23;20808;-79
2024/01/01 00:03:46;;;;;;;1.60;1.30;;;9.80;98.20;;;;;;6134687;23;20457;-78
2024/01/01 00:06:12;;;;;;;1.53;1.10;;;9.80;98.20;;;;;;6108669;23;20547;-80
2024/01/01 00:08:39;;;;;;;3.63;2.40;;;9.80;98.20;;;;;;6136146;23;20849;-79
2024/01/01 00:11:07;;;;;;;1.57;1.10;;;9.80;98.20;;;;;;6117670;23;20502;-79
2024/01/01 00:13:34;;;;;;;1.60;1.20;;;9.80;98.20;;;;;;6137738;23;20418;-82
2024/01/01 00:16:00;;;;;;;2.57;2.37;;;9.80;98.20;;;;;;6105482;23;20520;-78
2024/01/01 00:18:27;;;;;;;4.57;4.20;;;9.80;98.20;;;;;;6135600;23;20429;-79
2024/01/01 00:20:55;;;;;;;5.20;3.10;;;9.80;98.20;;;;;;6105182;23;20442;-78
2024/01/01 00:23:22;;;;;;;2.03;1.83;;;9.80;98.20;;;;;;6136699;23;20505;-77
2024/01/01 00:25:49;;;;;;;1.57;1.17;;;9.80;98.20;;;;;;6111711;23;20993;-77
2024/01/01 00:28:16;;;;;;;1.60;1.20;;;9.80;98.20;;;;;;6134932;23;20446;-76
2024/01/01 00:30:43;;;;;;;1.57;1.10;;;9.80;98.20;;;;;;6124560;23;20824;-77
2024/01/01 00:33:10;;;;;;;1.53;1.10;;;9.70;98.20;;;;;;6122139;23;20449;-77
2024/01/01 00:35:37;;;;;;;1.53;1.10;;;9.70;98.20;;;;;;6123658;23;20425;-76
2024/01/01 00:38:05;;;;;;;1.53;1.20;;;9.70;98.20;;;;;;6123643;23;20970;-76
2024/01/01 00:40:32;;;;;;;1.50;1.10;;;9.70;98.20;;;;;;6113264;23;20433;-78
2024/01/01 00:42:59;;;;;;;1.53;1.10;;;9.70;98.20;;;;;;6123230;23;21010;-75
2024/01/01 00:45:26;;;;;;;1.53;1.10;;;9.70;98.20;;;;;;6114291;23;20549;-80
2024/01/01 00:47:52;;;;;;;1.50;1.10;;;9.70;98.20;;;;;;6124004;23;20463;-79
2024/01/01 00:50:19;;;;;;;1.57;1.10;;;9.70;98.20;;;;;;6114748;23;20422;-78
2024/01/01 00:52:46;;;;;;;1.57;1.10;;;9.70;98.20;;;;;;6124360;23;20490;-79
2024/01/01 00:55:14;;;;;;;1.57;1.10;;;9.70;98.20;;;;;;6117760;23;20477;-80
2024/01/01 00:57:41;;;;;;;1.53;1.10;;;9.70;98.20;;;;;;6127097;23;21104;-79
2024/01/01 01:00:11;;;;;;;1.53;1.10;;;9.70;98.20;;;;;;6120875;23;20834;-81
2024/01/01 01:02:38;;;;;;;1.50;1.10;;;9.70;98.20;;;;;;6126856;23;20453;-80
2024/01/01 01:05:05;;;;;;;1.53;1.00;;;9.70;98.20;;;;;;6123395;23;20446;-80
2024/01/01 01:07:32;;;;;;;1.57;1.10;;;9.70;98.20;;;;;;6128091;23;20472;-79
2024/01/01 01:09:59;;;;;;;1.60;1.20;;;9.70;98.20;;;;;;6134360;23;20599;-80
2024/01/01 01:12:27;;;;;;;1.50;1.10;;;9.70;98.20;;;;;;6127488;23;20480;-79
2024/01/01 01:14:54;;;;;;;1.57;1.10;;;9.70;98.20;;;;;;6126486;23;20442;-81
2024/01/01 01:17:21;;;;;;;1.50;1.10;;;9.70;98.20;;;;;;6129140;23;20528;-81
2024/01/01 01:19:48;;;;;;;1.53;1.10;;;9.70;98.20;;;;;;6135877;23;20512;-81
2024/01/01 01:22:14;;;;;;;1.57;1.13;;;9.70;98.20;;;;;;6125835;23;20483;-81
2024/01/01 01:24:41;;;;;;;1.57;1.10;;;9.70;98.20;;;;;;6128823;23;20451;-81
2024/01/01 01:27:08;;;;;;;1.57;1.20;;;9.70;98.20;;;;;;6124412;23;20520;-80
2024/01/01 01:29:37;;;;;;;1.60;1.20;;;9.70;98.20;;;;;;6130099;23;20525;-81
2024/01/01 01:32:05;;;;;;;1.57;1.10;;;9.70;98.20;;;;;;6123793;23;20830;-81
2024/01/01 01:34:31;;;;;;;1.60;1.20;;;9.70;98.20;;;;;;6132033;23;20422;-79
2024/01/01 01:36:58;;;;;;;1.53;1.10;;;9.70;98.20;;;;;;6123403;23;20449;-81
2024/01/01 01:39:25;;;;;;;1.57;1.10;;;9.60;98.20;;;;;;6132736;23;20915;-80
2024/01/01 01:41:52;;;;;;;1.50;1.10;;;9.60;98.20;;;;;;6123687;23;20456;-81
2024/01/01 01:44:18;;;;;;;1.57;1.10;;;9.60;98.20;;;;;;6134836;23;20456;-81
2024/01/01 01:46:47;;;;;;;1.53;1.10;;;9.70;98.20;;;;;;6126855;23;20449;-81
2024/01/01 01:49:14;;;;;;;1.57;1.10;;;9.70;98.20;;;;;;6137564;23;20505;-80
2024/01/01 01:51:41;;;;;;;1.60;1.10;;;9.70;98.20;;;;;;6120528;23;20483;-81
2024/01/01 01:54:09;;;;;;;1.60;1.30;;;9.70;98.20;;;;;;6137934;23;20422;-79
2024/01/01 01:56:36;;;;;;;1.60;1.10;;;9.70;98.20;;;;;;6126087;23;20449;-79
2024/01/01 01:59:03;;;;;;;1.57;1.20;;;9.60;98.20;;;;;;6138142;23;20422;-80
2024/01/01 02:01:31;;;;;;;1.60;1.30;;;9.60;98.20;;;;;;6118940;23;20457;-80
2024/01/01 02:03:59;;;;;;;1.50;1.10;;;9.60;98.20;;;;;;6139937;23;20417;-81
2024/01/01 02:06:27;;;;;;;1.50;1.10;;;9.60;98.20;;;;;;6118708;23;20448;-80
2024/01/01 02:08:54;;;;;;;1.50;1.10;;;9.60;98.20;;;;;;6141478;23;20533;-81
2024/01/01 02:11:22;;;;;;;1.50;1.10;;;9.50;98.20;;;;;;6124056;23;20459;-83
2024/01/01 02:13:48;;;;;;;1.60;1.20;;;9.50;98.20;;;;;;6145413;23;20673;-82
2024/01/01 02:16:15;;;;;;;1.57;1.10;;;9.40;98.20;;;;;;6109179;23;20473;-81
2024/01/01 02:18:42;;;;;;;1.60;1.20;;;9.20;98.20;;;;;;6149163;23;20429;-81
2024/01/01 02:21:10;;;;;;;1.60;1.10;;;9.10;98.20;;;;;;6112369;23;20448;-81
2024/01/01 02:23:39;;;;;;;1.60;1.20;;;9.00;98.20;;;;;;6141654;23;20457;-81
2024/01/01 02:26:07;;;;;;;1.57;1.20;;;8.90;98.20;;;;;;6113211;23;21587;-82
2024/01/01 02:28:34;;;;;;;1.60;1.30;;;8.80;98.20;;;;;;6142580;23;20421;-80
2024/01/01 02:31:01;;;;;;;1.53;1.10;;;8.70;98.20;;;;;;6121963;23;20470;-82
2024/01/01 02:33:28;;;;;;;1.60;1.20;;;8.60;98.20;;;;;;6142571;23;20929;-82
2024/01/01 02:36:00;;;;;;;1.57;1.20;;;8.50;98.20;;;;;;6125087;23;20414;-82
2024/01/01 02:38:27;;;;;;;1.53;1.20;;;8.50;98.20;;;;;;6134494;23;20777;-82
2024/01/01 02:40:58;;;;;;;1.57;1.20;;;8.40;98.20;;;;;;6110855;23;20476;-83
2024/01/01 02:43:25;;;;;;;1.60;1.20;;;8.40;98.20;;;;;;6144292;23;20686;-83
2024/01/01 02:45:52;;;;;;;1.53;1.10;;;8.30;98.20;;;;;;6119353;23;20429;-83
2024/01/01 02:48:19;;;;;;;2.23;2.03;;;8.30;98.20;;;;;;6144960;23;20418;-82
2024/01/01 02:50:46;;;;;;;1.57;1.20;;;8.30;98.20;;;;;;6133692;23;20414;-83
2024/01/01 02:53:13;;;;;;;1.60;1.20;;;8.30;98.20;;;;;;6078380;23;20963;-83
2024/01/01 02:55:40;;;;;;;1.60;1.20;;;8.30;98.20;;;;;;6104061;23;20430;-83
2024/01/01 02:58:08;;;;;;;1.60;1.20;;;8.20;98.20;;;;;;6103710;23;20971;-82
2024/01/01 03:00:35;;;;;;;1.60;1.20;;;8.20;98.20;;;;;;6095648;23;20525;-82
2024/01/01 03:03:04;;;;;;;1.60;1.30;;;8.20;98.20;;;;;;6103137;23;20456;-83
2024/01/01 03:05:30;;;;;;;1.60;1.20;;;8.20;98.20;;;;;;6093534;23;20491;-82
2024/01/01 03:07:57;;;;;;;1.60;1.20;;;8.20;98.20;;;;;;6101824;23;20818;-82
2024/01/01 03:10:25;;;;;;;1.60;1.30;;;8.20;98.20;;;;;;6094428;23;20430;-82
2024/01/01 03:12:51;;;;;;;1.60;1.30;;;8.20;98.20;;;;;;6104181;23;20463;-82
2024/01/01 03:15:20;;;;;;;1.60;1.20;;;8.30;98.20;;;;;;6095328;23;20469;-82
2024/01/01 03:17:47;;;;;;;1.60;1.30;;;8.20;98.20;;;;;;6105240;23;20460;-82
2024/01/01 03:20:13;;;;;;;1.60;1.23;;;8.30;98.20;;;;;;6095349;23;20427;-82
2024/01/01 03:22:41;;;;;;;1.60;1.20;;;8.30;98.20;;;;;;6100939;23;20458;-82
2024/01/01 03:25:10;;;;;;;1.60;1.30;;;8.30;98.20;;;;;;6094433;23;20478;-82
2024/01/01 03:27:37;;;;;;;1.60;1.20;;;8.30;98.20;;;;;;6100056;23;20457;-82
2024/01/01 03:30:06;;;;;;;1.60;1.30;;;8.30;98.20;;;;;;6093665;23;20742;-82
2024/01/01 03:32:34;;;;;;;1.60;1.30;;;8.30;98.20;;;;;;6098791;23;20458;-82
2024/01/01 03:35:01;;;;;;;1.60;1.20;;;8.30;98.20;;;;;;6104025;23;20828;-81
2024/01/01 03:37:31;;;;;;;1.60;1.20;;;8.30;98.20;;;;;;6102640;23;20867;-82
2024/01/01 03:39:58;;;;;;;1.60;1.10;;;8.30;98.20;;;;;;6105814;23;20478;-81
2024/01/01 03:42:25;;;;;;;1.60;1.10;;;8.30;98.20;;;;;;6101905;23;21029;-81
2024/01/01 03:44:52;;;;;;;1.53;1.20;;;8.30;98.20;;;;;;6096034;23;20541;-81
2024/01/01 03:47:19;;;;;;;1.60;1.10;;;8.30;98.20;;;;;;6097590;23;20455;-81
2024/01/01 03:49:47;;;;;;;1.60;1.10;;;8.40;98.20;;;;;;6098980;23;20424;-82
2024/01/01 03:52:14;;;;;;;1.60;1.20;;;8.40;98.20;;;;;;6096605;23;20885;-81
2024/01/01 03:54:41;;;;;;;1.60;1.20;;;8.30;98.20;;;;;;6100247;23;20422;-80
2024/01/01 03:57:07;;;;;;;1.57;1.20;;;8.30;98.20;;;;;;6097368;23;20790;-81
2024/01/01 03:59:35;;;;;;;1.60;1.20;;;8.40;98.20;;;;;;6101760;23;20510;-81
2024/01/01 04:02:02;;;;;;;1.57;1.20;;;8.40;98.20;;;;;;6095720;23;20460;-81
2024/01/01 04:04:28;;;;;;;1.60;1.20;;;8.40;98.20;;;;;;6102565;23;20502;-79
2024/01/01 04:06:57;;;;;;;1.57;1.13;;;8.40;98.20;;;;;;6093571;23;20924;-80
2024/01/01 04:09:23;;;;;;;1.63;1.40;;;8.40;98.20;;;;;;6103707;23;20486;-81
2024/01/01 04:11:50;;;;;;;1.60;1.20;;;8.40;98.20;;;;;;6093407;23;20464;-81
2024/01/01 04:14:17;;;;;;;1.60;1.20;;;8.40;98.20;;;;;;6104985;23;20482;-81
2024/01/01 04:16:44;;;;;;;1.60;1.20;;;8.40;98.20;;;;;;6090012;23;20520;-80
2024/01/01 04:19:10;;;;;;;1.57;1.20;;;8.50;98.20;;;;;;6104387;23;20429;-80
2024/01/01 04:21:39;;;;;;;1.60;1.20;;;8.50;98.20;;;;;;6091251;23;20453;-80
2024/01/01 04:24:09;;;;;;;1.53;1.20;;;8.50;98.20;;;;;;6107213;23;20441;-80
2024/01/01 04:26:38;;;;;;;1.60;1.20;;;8.50;98.20;;;;;;6087779;23;20469;-80
2024/01/01 04:29:05;;;;;;;1.53;1.10;;;8.50;98.20;;;;;;6104489;23;20514;-79
2024/01/01 04:31:31;;;;;;;1.57;1.20;;;8.50;98.20;;;;;;6086422;23;20529;-80
2024/01/01 04:33:58;;;;;;;1.60;1.10;;;8.50;98.20;;;;;;6107108;23;20505;-80
2024/01/01 04:36:30;;;;;;;1.50;1.20;;;8.50;98.20;;;;;;6095667;23;20557;-81
2024/01/01 04:38:57;;;;;;;1.60;1.10;;;8.50;98.20;;;;;;6117373;23;20423;-80
2024/01/01 04:41:25;;;;;;;1.60;1.20;;;8.50;98.20;;;;;;6086270;23;20453;-81
2024/01/01 04:43:52;;;;;;;1.60;1.20;;;8.50;98.20;;;;;;6110015;23;20495;-80
2024/01/01 04:46:19;;;;;;;1.60;1.20;;;8.60;98.20;;;;;;6085498;23;20497;-80
2024/01/01 04:48:45;;;;;;;1.60;1.43;;;8.50;98.20;;;;;;6109869;23;20895;-80
2024/01/01 04:51:12;;;;;;;1.60;1.10;;;8.50;98.20;;;;;;6084999;23;20476;-81
2024/01/01 04:53:39;;;;;;;1.60;1.20;;;8.50;98.20;;;;;;6110208;23;20510;-80
2024/01/01 04:56:06;;;;;;;1.57;1.20;;;8.50;98.20;;;;;;6082228;23;20430;-81
2024/01/01 04:58:34;;;;;;;1.60;1.20;;;8.50;98.20;;;;;;6111195;23;20427;-81
2024/01/01 05:01:01;;;;;;;1.60;1.20;;;8.60;98.20;;;;;;6081368;23;20442;-81
2024/01/01 05:03:30;;;;;;;1.53;1.10;;;8.60;98.20;;;;;;6112505;23;20423;-81
2024/01/01 05:05:57;;;;;;;1.60;1.20;;;8.50;98.20;;;;;;6091231;23;20447;-81
2024/01/01 05:08:24;;;;;;;1.57;1.20;;;8.50;98.20;;;;;;6114205;23;20830;-81
2024/01/01 05:10:50;;;;;;;1.60;1.20;;;8.50;98.20;;;;;;6080502;23;20482;-80
2024/01/01 05:13:17;;;;;;;1.60;1.20;;;8.50;98.20;;;;;;6114892;23;20943;-81
2024/01/01 05:15:45;;;;;;;1.50;1.20;;;8.60;98.20;;;;;;6092973;23;20437;-80
2024/01/01 05:18:12;;;;;;;1.57;1.20;;;8.60;98.20;;;;;;6077912;23;20525;-81
2024/01/01 05:20:39;;;;;;;1.57;1.20;;;8.60;98.20;;;;;;6094388;23;20429;-81
2024/01/01 05:23:06;;;;;;;1.60;1.10;;;8.60;98.20;;;;;;6132817;23;20953;-81
2024/01/01 05:25:33;;;;;;;1.60;1.20;;;8.60;98.20;;;;;;6122215;23;20545;-80
2024/01/01 05:27:59;;;;;;;1.60;1.20;;;8.60;98.20;;;;;;6129962;23;20528;-81
2024/01/01 05:30:29;;;;;;;1.60;1.20;;;8.60;98.20;;;;;;6122849;23;20501;-81
2024/01/01 05:32:57;;;;;;;1.60;1.20;;;8.60;98.20;;;;;;6105013;23;20525;-80
2024/01/01 05:35:24;;;;;;;1.57;1.20;;;8.60;98.20;;;;;;6093233;23;20756;-81
2024/01/01 05:37:51;;;;;;;1.53;1.20;;;8.60;98.20;;;;;;6102141;23;20854;-81
2024/01/01 05:40:18;;;;;;;1.60;1.20;;;8.60;98.20;;;;;;6092750;23;20418;-81
2024/01/01 05:42:44;;;;;;;1.53;1.10;;;8.60;98.20;;;;;;6099371;23;20521;-81
2024/01/01 05:45:11;;;;;;;1.60;1.20;;;8.60;98.20;;;;;;6093953;23;20478;-80
2024/01/01 05:47:38;;;;;;;1.53;1.10;;;8.70;98.20;;;;;;6099023;23;20535;-81
2024/01/01 05:50:07;;;;;;;1.60;1.30;;;8.70;98.20;;;;;;6096238;23;20831;-81
2024/01/01 05:52:34;;;;;;;1.53;1.20;;;8.70;98.20;;;;;;6099033;23;20533;-82
2024/01/01 05:55:01;;;;;;;1.53;1.10;;;8.70;98.20;;;;;;6094379;23;20999;-81
2024/01/01 05:57:27;;;;;;;1.60;1.20;;;8.70;98.20;;;;;;6097647;23;20887;-81
2024/01/01 05:59:54;;;;;;;1.60;1.20;;;8.70;98.20;;;;;;6096557;23;20609;-81
2024/01/01 06:02:21;;;;;;;1.60;1.20;;;8.70;98.20;;;;;;6096165;23;20453;-80
2024/01/01 06:04:48;;;;;;;1.80;1.60;;;8.70;98.20;;;;;;6097862;23;20510;-81
2024/01/01 06:07:16;;;;;;;1.60;1.10;;;8.70;98.20;;;;;;6096990;23;20472;-81
2024/01/01 06:09:43;;;;;;;1.53;1.20;;;8.80;98.20;;;;;;6099103;23;20454;-80
2024/01/01 06:12:10;;;;;;;1.60;1.20;;;8.80;98.20;;;;;;6095049;23;20454;-81
2024/01/01 06:14:36;;;;;;;1.60;1.20;;;8.80;98.20;;;;;;6099901;23;21151;-81
2024/01/01 06:17:04;;;;;;;1.60;1.20;;;8.80;98.20;;;;;;6093980;23;20837;-81
2024/01/01 06:19:30;;;;;;;1.60;1.30;;;8.80;98.20;;;;;;6101611;23;20427;-81
2024/01/01 06:21:57;;;;;;;1.53;1.10;;;8.80;98.20;;;;;;6090616;23;20453;-81
2024/01/01 06:24:25;;;;;;;1.57;1.20;;;8.80;98.20;;;;;;6102813;23;20825;-81
2024/01/01 06:26:53;;;;;;;1.60;1.30;;;8.80;98.20;;;;;;6088127;23;20449;-81
2024/01/01 06:29:19;;;;;;;1.60;1.20;;;8.80;98.20;;;;;;6104848;23;20406;-81
2024/01/01 06:31:47;;;;;;;1.60;1.20;;;8.70;98.20;;;;;;6096004;23;20454;-81
2024/01/01 06:34:14;;;;;;;1.57;1.20;;;8.70;98.20;;;;;;6114045;23;20426;-80
2024/01/01 06:36:41;;;;;;;1.60;1.20;;;8.70;98.20;;;;;;6089569;23;20450;-80
2024/01/01 06:39:08;;;;;;;1.50;1.10;;;8.70;98.20;;;;;;6107155;23;20946;-81
2024/01/01 06:41:36;;;;;;;1.60;1.30;;;8.70;98.20;;;;;;6088092;23;20460;-80
2024/01/01 06:44:03;;;;;;;1.50;1.10;;;8.70;98.20;;;;;;6107702;23;20422;-80
2024/01/01 06:46:29;;;;;;;1.60;1.20;;;8.60;98.20;;;;;;6087674;23;20532;-81
2024/01/01 06:48:56;;;;;;;1.60;1.20;;;8.60;98.20;;;;;;6109962;23;20477;-80
2024/01/01 06:51:23;;;;;;;1.60;1.10;;;8.60;98.20;;;;;;6086415;23;20453;-80
2024/01/01 06:53:50;;;;;;;1.50;1.10;;;8.60;98.20;;;;;;6110427;23;20750;-81
2024/01/01 06:56:16;;;;;;;1.60;1.10;;;8.60;98.20;;;;;;6084404;23;21156;-80
2024/01/01 06:58:45;;;;;;;1.57;1.17;;;8.50;98.20;;;;;;6113073;23;20446;-81
2024/01/01 07:01:11;;;;;;;1.53;1.20;;;8.50;98.20;;;;;;6085962;23;20501;-81
2024/01/01 07:03:39;;;;;;;1.60;1.20;;;8.50;98.20;;;;;;6111366;23;20461;-79
2024/01/01 07:06:06;;;;;;;1.60;1.10;;;8.50;98.20;;;;;;6083033;23;20687;-80
2024/01/01 07:08:32;;;;;;;1.53;1.20;;;8.50;98.20;;;;;;6111225;23;20457;-81
2024/01/01 07:10:59;;;;;;;1.53;1.20;;;8.50;98.20;;;;;;6081430;23;20442;-81
2024/01/01 07:13:26;;;;;;;1.57;1.10;;;8.50;98.20;;;;;;6111724;23;20577;-76
2024/01/01 07:15:54;;;;;;;1.57;1.13;;;8.50;98.20;;;;;;6075575;23;20405;-76
2024/01/01 07:18:21;;;;;;;1.53;1.20;;;8.50;98.20;;;;;;6111821;23;20419;-76
2024/01/01 07:20:48;;;;;;;1.57;1.10;;;8.50;98.20;;;;;;6077556;23;20922;-76
2024/01/01 07:23:14;;;;;;;1.50;1.10;;;8.50;98.20;;;;;;6113983;23;20435;-77
2024/01/01 07:25:41;;;;;;;1.60;1.27;;;8.50;98.20;;;;;;6090415;23;20422;-76
2024/01/01 07:28:08;;;;;;;1.57;1.17;;;8.50;98.20;;;;;;6098968;23;20446;-76
2024/01/01 07:30:35;;;;;;;1.60;1.20;;;8.50;98.20;;;;;;6088553;23;20505;-75
2024/01/01 07:33:04;;;;;;;1.60;1.30;;;8.40;98.20;;;;;;6073870;23;20525;-75
2024/01/01 07:35:30;;;;;;;1.57;1.20;;;8.40;98.20;;;;;;6089710;23;20482;-76
2024/01/01 07:37:57;;;;;;;1.60;1.20;;;8.40;98.20;;;;;;6074203;23;20451;-76
2024/01/01 07:40:24;;;;;;;1.60;1.17;;;8.40;98.20;;;;;;6090423;23;20425;-77
2024/01/01 07:42:51;;;;;;;1.60;1.20;;;8.40;98.20;;;;;;6074012;23;20457;-76
2024/01/01 07:45:17;;;;;;;1.60;1.20;;;8.40;98.20;;;;;;6089772;23;20427;-76
2024/01/01 07:47:45;;;;;;;1.60;1.20;;;8.30;98.20;;;;;;6077690;23;20835;-77
2024/01/01 07:50:13;;;;;;;1.57;1.20;;;8.30;98.20;;;;;;6096466;23;20425;-78
2024/01/01 07:52:39;;;;;;;1.60;1.20;;;8.30;98.20;;;;;;6079475;23;20812;-79
2024/01/01 07:55:07;;;;;;;1.60;1.20;;;8.30;98.20;;;;;;6096734;23;20446;-78
2024/01/01 07:57:35;;;;;;;1.60;1.20;;;8.30;98.20;;;;;;6082158;23;20457;-78
2024/01/01 08:00:01;;;;;;;1.60;1.20;;;8.30;98.20;;;;;;6094626;23;20434;-78
2024/01/01 08:02:28;;;;;;;1.60;1.17;;;8.30;98.20;;;;;;6083150;23;20511;-78
2024/01/01 08:04:55;;;;;;;1.60;1.30;;;8.30;98.20;;;;;;6091209;23;20522;-76
2024/01/01 08:07:23;;;;;;;1.60;1.17;;;8.20;98.20;;;;;;6077568;23;20457;-78
2024/01/01 08:09:50;;;;;;;1.60;1.20;;;8.20;98.20;;;;;;6095411;23;20578;-78
2024/01/01 08:12:17;;;;;;;1.60;1.20;;;8.20;98.20;;;;;;6077650;23;20460;-78
2024/01/01 08:14:43;;;;;;;1.60;1.20;;;8.20;98.20;;;;;;6095533;23;20450;-78
2024/01/01 08:17:11;;;;;;;1.60;1.20;;;8.10;98.20;;;;;;6081841;23;20461;-78
2024/01/01 08:19:37;;;;;;;1.60;1.20;;;8.10;98.20;;;;;;6097428;23;20419;-79
2024/01/01 08:22:04;;;;;;;1.60;1.20;;;8.10;98.20;;;;;;6084133;23;20450;-78
2024/01/01 08:24:32;;;;;;;1.53;1.20;;;8.10;98.20;;;;;;6098304;23;20439;-78
2024/01/01 08:26:59;;;;;;;1.53;1.20;;;8.10;98.20;;;;;;6079821;23;20457;-77
2024/01/01 08:29:26;;;;;;;1.60;1.20;;;8.10;98.20;;;;;;6098435;23;20787;-78
2024/01/01 08:31:53;;;;;;;1.60;1.20;;;8.10;98.20;;;;;;6080005;23;20456;-77
2024/01/01 08:34:20;;;;;;;1.60;1.20;;;8.10;98.20;;;;;;6096240;23;20510;-78
2024/01/01 08:36:47;;;;;;;1.60;1.40;;;8.10;98.20;;;;;;6079608;23;20454;-78
2024/01/01 08:39:14;;;;;;;1.57;1.20;;;8.10;98.20;;;;;;6108494;23;20429;-78
2024/01/01 08:41:45;;;;;;;1.60;1.30;;;8.10;98.20;;;;;;6077490;23;20450;-77
2024/01/01 08:44:12;;;;;;;1.60;1.20;;;8.10;98.20;;;;;;6094521;23;20478;-78
2024/01/01 08:46:39;;;;;;;1.57;1.10;;;8.10;98.20;;;;;;6079065;23;20473;-78
2024/01/01 08:49:06;;;;;;;1.60;1.30;;;8.10;98.20;;;;;;6095832;23;20429;-77
2024/01/01 08:51:34;;;;;;;1.60;1.20;;;8.20;98.20;;;;;;6082886;23;20450;-77
2024/01/01 08:54:01;;;;;;;1.57;1.20;;;8.20;98.20;;;;;;6091909;23;20477;-77
2024/01/01 08:56:28;;;;;;;1.57;1.20;;;8.20;98.20;;;;;;6074534;23;20450;-77
2024/01/01 08:58:56;;;;;;;1.60;1.30;;;8.20;98.20;;;;;;6088919;23;20425;-77
2024/01/01 09:01:23;;;;;;;1.60;1.20;;;8.20;98.20;;;;;;6081800;23;20447;-78
2024/01/01 09:03:50;;;;;;;1.53;1.20;;;8.20;98.20;;;;;;6088628;23;20442;-77
2024/01/01 09:06:17;;;;;;;1.60;1.40;;;8.30;98.20;;;;;;6076871;23;20446;-77
2024/01/01 09:08:44;;;;;;;1.60;1.27;;;8.30;98.20;;;;;;6088724;23;20793;-77
2024/01/01 09:11:10;;;;;;;1.57;1.20;;;8.40;98.20;;;;;;6074723;23;20513;-77
2024/01/01 09:13:37;;;;;;;1.60;1.20;;;8.40;98.20;;;;;;6087461;23;20461;-77
2024/01/01 09:16:06;;;;;;;1.53;1.10;;;8.50;98.20;;;;;;6075089;23;20447;-77
2024/01/01 09:18:32;;;;;;;1.50;1.10;;;8.50;98.20;;;;;;6088723;23;20513;-77
2024/01/01 09:20:59;;;;;;;1.57;1.10;;;8.50;98.20;;;;;;6076527;23;20505;-78
2024/01/01 09:23:27;;;;;;;1.53;1.10;;;8.50;98.20;;;;;;6087603;23;20529;-77
2024/01/01 09:25:55;;;;;;;1.53;1.10;;;8.50;98.20;;;;;;6074079;23;20458;-78
2024/01/01 09:28:21;;;;;;;1.53;1.17;;;8.50;98.20;;;;;;6088347;23;20480;-78
2024/01/01 09:30:48;;;;;;;1.60;1.20;;;8.50;98.20;;;;;;6076463;23;20435;-77
2024/01/01 09:33:16;;;;;;;1.57;1.10;;;8.50;98.20;;;;;;6088306;23;21038;-78
2024/01/01 09:35:43;;;;;;;1.60;1.20;;;8.50;98.20;;;;;;6088493;23;20427;-77
2024/01/01 09:38:10;;;;;;;1.50;1.10;;;8.50;98.20;;;;;;6074019;23;20446;-78
2024/01/01 09:40:37;;;;;;;1.57;1.20;;;8.60;98.20;;;;;;6090722;23;20449;-77
2024/01/01 09:43:04;;;;;;;1.57;1.10;;;8.50;98.20;;;;;;6074326;23;20457;-78
2024/01/01 09:45:31;;;;;;;1.60;1.30;;;8.50;98.20;;;;;;6092538;23;20431;-77
2024/01/01 09:47:58;;;;;;;1.57;1.20;;;8.50;98.20;;;;;;6075710;23;20816;-77
2024/01/01 09:50:26;;;;;;;1.60;1.20;;;8.50;98.20;;;;;;6090347;23;20454;-78
2024/01/01 09:52:59;;;;;;;1.50;1.17;;;8.50;98.20;;;;;;6074419;23;20451;-77
2024/01/01 09:55:26;;;;;;;1.60;1.30;;;8.50;98.20;;;;;;6091414;23;20403;-77
2024/01/01 09:57:53;;;;;;;1.57;1.10;;;8.50;98.20;;;;;;6074679;23;20534;-77
2024/01/01 10:00:21;;;;;;;1.57;1.10;;;8.50;98.20;;;;;;6089998;23;20422;-78
2024/01/01 10:02:48;;;;;;;1.53;1.10;;;8.50;98.20;;;;;;6074486;23;20454;-78
2024/01/01 10:05:16;;;;;;;1.53;1.10;;;8.50;98.20;;;;;;6090728;23;20453;-76
2024/01/01 10:07:47;;;;;;;1.60;1.20;;;8.60;98.20;;;;;;6074865;23;20447;-77
2024/01/01 10:10:27;;;;;;;1.50;1.10;;;8.60;98.20;;;;;;6091367;23;20438;-78
2024/01/01 10:12:54;;;;;;;1.57;1.20;;;8.60;98.20;;;;;;6076781;23;20794;-78
2024/01/01 10:15:22;;;;;;;1.60;1.20;;;8.60;98.20;;;;;;6090664;23;20479;-77
2024/01/01 10:17:49;;;;;;;1.60;1.20;;;8.60;98.20;;;;;;6074987;23;20990;-77
2024/01/01 10:20:20;;;;;;;1.60;1.10;;;8.70;98.20;;;;;;6092504;23;20456;-78
2024/01/01 10:22:48;;;;;;;1.60;1.30;;;8.70;98.20;;;;;;6076933;23;20454;-77
2024/01/01 10:25:16;;;;;;;1.60;1.27;;;8.70;98.20;;;;;;6092883;23;20414;-77
2024/01/01 10:27:44;;;;;;;1.50;1.10;;;8.70;98.20;;;;;;6075901;23;20529;-78
2024/01/01 10:30:12;;;;;;;1.57;1.20;;;8.80;98.20;;;;;;6092526;23;21000;-78
2024/01/01 10:32:40;;;;;;;1.57;1.20;;;8.80;98.20;;;;;;6076784;23;20454;-78
2024/01/01 10:35:09;;;;;;;1.53;1.20;;;8.80;98.20;;;;;;6091571;23;20447;-78
2024/01/01 10:37:39;;;;;;;1.57;1.10;;;8.80;98.20;;;;;;6079010;23;20448;-79
2024/01/01 10:40:14;;;;;;;1.60;1.40;;;8.80;98.20;;;;;;6100136;23;20464;-78
2024/01/01 10:45:50;;;;;;;1.53;1.20;;;9.00;98.20;;;;;;6041923;23;20438;-78
2024/01/01 10:48:17;;;;;;;1.53;1.10;;;9.10;98.20;;;;;;6088107;23;20991;-77
2024/01/01 10:50:55;;;;;;;1.60;1.20;;;9.20;98.20;;;;;;6089626;23;20811;-77
2024/01/01 10:56:12;;;;;;;1.57;1.20;;;9.40;98.20;;;;;;6110314;23;20449;-76
2024/01/01 10:58:51;;;;;;;1.57;1.10;;;9.60;98.20;;;;;;6109868;23;20800;-77
2024/01/01 11:01:20;;;;;;;1.60;1.20;;;9.70;98.20;;;;;;6082663;23;20501;-77
2024/01/01 11:03:47;;;;;;;1.53;1.10;;;9.70;98.20;;;;;;6107080;23;20482;-76
2024/01/01 11:06:28;;;;;;;1.60;1.30;;;9.80;98.20;;;;;;6082093;23;20460;-76
2024/01/01 11:08:55;;;;;;;1.53;1.10;;;9.70;98.20;;;;;;6105878;23;20439;-76
2024/01/01 11:11:25;;;;;;;1.57;1.10;;;9.70;98.20;;;;;;6081693;23;20517;-76
2024/01/01 11:13:54;;;;;;;1.50;1.10;;;9.70;98.20;;;;;;6104398;23;20702;-77
2024/01/01 11:16:21;;;;;;;1.57;1.20;;;9.60;98.20;;;;;;6081385;23;20485;-76
2024/01/01 11:18:48;;;;;;;1.60;1.10;;;9.60;98.20;;;;;;6106077;23;20922;-77
2024/01/01 11:21:32;;;;;;;1.53;1.10;;;9.60;98.20;;;;;;6081642;23;20455;-76
2024/01/01 11:24:01;;;;;;;1.57;1.10;;;9.60;98.20;;;;;;6103814;23;20498;-76
2024/01/01 11:26:34;;;;;;;1.53;1.10;;;9.60;98.20;;;;;;6083256;23;20516;-77
2024/01/01 11:29:03;;;;;;;1.60;1.20;;;9.50;98.20;;;;;;6104530;23;20446;-77
2024/01/01 11:31:31;;;;;;;1.60;1.13;;;9.50;98.20;;;;;;6084394;23;20847;-77
2024/01/01 11:34:06;;;;;;;1.53;1.20;;;9.40;98.20;;;;;;6104709;23;20482;-77
2024/01/01 11:36:34;;;;;;;1.60;1.20;;;9.40;98.20;;;;;;6084050;23;20752;-76
2024/01/01 11:39:03;;;;;;;1.53;1.10;;;9.40;98.20;;;;;;6104792;23;20453;-77
2024/01/01 11:41:33;;;;;;;1.50;1.10;;;9.30;98.20;;;;;;6085341;23;20450;-77
2024/01/01 11:44:10;;;;;;;1.57;1.20;;;9.30;98.20;;;;;;6105575;23;20443;-78
2024/01/01 11:46:37;;;;;;;1.50;1.10;;;9.30;98.20;;;;;;6086712;23;20517;-77
2024/01/01 11:49:05;;;;;;;1.57;1.20;;;9.40;98.20;;;;;;6104984;23;20533;-77
2024/01/01 11:51:49;;;;;;;1.53;1.10;;;9.40;98.20;;;;;;6084405;23;20449;-77
2024/01/01 11:54:16;;;;;;;1.53;1.10;;;9.40;98.20;;;;;;6102222;23;20489;-77
2024/01/01 11:56:46;;;;;;;2.80;2.27;;;9.40;98.20;;;;;;6087441;23;20802;-77
2024/01/01 11:59:13;;;;;;;1.57;1.10;;;9.50;98.20;;;;;;6101957;23;20807;-77
2024/01/01 12:01:41;;;;;;;1.50;1.10;;;9.40;98.20;;;;;;6092370;23;20449;-77
2024/01/01 12:04:10;;;;;;;1.50;1.10;;;9.40;98.20;;;;;;6099171;23;20446;-76
2024/01/01 12:06:37;;;;;;;1.57;1.10;;;9.50;98.20;;;;;;6086126;23;20887;-77
2024/01/01 12:09:07;;;;;;;1.57;1.10;;;9.50;98.20;;;;;;6098453;23;20450;-76
2024/01/01 12:11:34;;;;;;;1.50;1.10;;;9.50;98.20;;;;;;6079963;23;20489;-76
2024/01/01 12:14:03;;;;;;;1.50;1.10;;;9.50;98.20;;;;;;6098221;23;20533;-76
2024/01/01 12:16:31;;;;;;;1.53;1.10;;;9.60;98.20;;;;;;6078951;23;20465;-76
2024/01/01 12:18:59;;;;;;;1.50;1.10;;;9.60;98.20;;;;;;6098697;23;20863;-76
2024/01/01 12:21:36;;;;;;;1.57;1.10;;;9.60;98.20;;;;;;6087128;23;20456;-77
2024/01/01 12:24:04;;;;;;;1.53;1.10;;;9.60;98.20;;;;;;6099099;23;20986;-77
2024/01/01 12:26:33;;;;;;;1.50;1.10;;;9.60;98.20;;;;;;6079105;23;20453;-77
2024/01/01 12:29:13;;;;;;;1.53;1.10;;;9.60;98.20;;;;;;6099073;23;20545;-78
2024/01/01 12:31:41;;;;;;;1.50;1.10;;;9.70;98.20;;;;;;6080853;23;20505;-77
2024/01/01 12:34:10;;;;;;;1.53;1.00;;;9.70;98.20;;;;;;6098031;23;20450;-76
2024/01/01 12:36:37;;;;;;;1.53;1.10;;;9.80;98.20;;;;;;6082601;23;20504;-77
2024/01/01 12:39:04;;;;;;;2.27;2.07;;;9.80;98.20;;;;;;6101456;23;20419;-77
2024/01/01 12:41:32;;;;;;;1.57;1.10;;;9.80;98.20;;;;;;6080816;23;20457;-78
2024/01/01 12:43:59;;;;;;;1.57;1.10;;;9.80;98.20;;;;;;6103914;23;20492;-78
2024/01/01 12:46:28;;;;;;;1.50;1.10;;;9.80;98.20;;;;;;6081236;23;20449;-78
2024/01/01 12:48:56;;;;;;;1.53;1.10;;;9.80;98.20;;;;;;6101964;23;20485;-78
2024/01/01 12:51:24;;;;;;;1.53;1.10;;;9.80;98.20;;;;;;6080479;23;20505;-78
2024/01/01 12:53:53;;;;;;;1.57;1.10;;;9.80;98.20;;;;;;6101293;23;20474;-78
2024/01/01 12:56:21;;;;;;;1.60;1.10;;;9.80;98.20;;;;;;6077554;23;20714;-78
2024/01/01 12:58:48;;;;;;;2.37;2.17;;;9.80;98.20;;;;;;6097144;23;20430;-77
2024/01/01 13:01:15;;;;;;;1.57;1.10;;;9.70;98.20;;;;;;6075923;23;20472;-77
2024/01/01 13:03:44;;;;;;;1.60;1.20;;;9.70;98.20;;;;;;6100490;23;20446;-78
2024/01/01 13:06:16;;;;;;;1.60;1.10;;;9.70;98.20;;;;;;6074640;23;20449;-78